DAL2368 KATL-KRDU
Flight info
| Callsign | DAL2368 |
|---|---|
| Flight time | 1h 8m |
| Altitude | 29000 |
| Route | GAIRY2 IRQ PYRES DMSTR2 |
| Aircraft | B737/M-SDE2E3FGHIRWXY/LB1 |
Departure
| Time | 2026-05-07 01:23 |
|---|---|
| Airport | Hartsfield Jackson Atlanta International Airport (KATL) |
Arrival
| Time | 2026-05-07 02:31 |
|---|---|
| Airport | Raleigh-Durham International Airport (KRDU) |
| Time | Latitude | Longitude | Altitude | Speed | Heading |
|---|---|---|---|---|---|
| 2026-05-07 01:00 | 33.64038 | -84.43642 | 1012 ft | 0 kts | 98° |
| 2026-05-07 01:10 | 33.64038 | -84.43643 | 1012 ft | 0 kts | 98° |
| 2026-05-07 01:13 | 33.64038 | -84.43642 | 1011 ft | 0 kts | 98° |
| 2026-05-07 01:14 | 33.64040 | -84.43654 | 1011 ft | 2 kts | 98° |
| 2026-05-07 01:14 | 33.64042 | -84.43672 | 1012 ft | 2 kts | 98° |
| 2026-05-07 01:14 | 33.64044 | -84.43690 | 1012 ft | 2 kts | 98° |
| 2026-05-07 01:14 | 33.64046 | -84.43708 | 1013 ft | 2 kts | 98° |
| 2026-05-07 01:15 | 33.64048 | -84.43719 | 1013 ft | 0 kts | 131° |
| 2026-05-07 01:15 | 33.64055 | -84.43723 | 1013 ft | 1 kts | 188° |
| 2026-05-07 01:15 | 33.64069 | -84.43720 | 1013 ft | 1 kts | 178° |
| 2026-05-07 01:15 | 33.64071 | -84.43720 | 1013 ft | 0 kts | 176° |
| 2026-05-07 01:17 | 33.64070 | -84.43720 | 1013 ft | 0 kts | 176° |
| 2026-05-07 01:17 | 33.64022 | -84.43720 | 1013 ft | 14 kts | 180° |
| 2026-05-07 01:17 | 33.63911 | -84.43722 | 1012 ft | 16 kts | 180° |
| 2026-05-07 01:18 | 33.63801 | -84.43721 | 1012 ft | 11 kts | 179° |
| 2026-05-07 01:18 | 33.63737 | -84.43720 | 1012 ft | 9 kts | 180° |
| 2026-05-07 01:18 | 33.63665 | -84.43670 | 1012 ft | 16 kts | 102° |
| 2026-05-07 01:18 | 33.63663 | -84.43514 | 1009 ft | 20 kts | 90° |
| 2026-05-07 01:19 | 33.63663 | -84.43340 | 1009 ft | 21 kts | 91° |
| 2026-05-07 01:19 | 33.63663 | -84.43148 | 1006 ft | 24 kts | 90° |
| 2026-05-07 01:19 | 33.63663 | -84.42945 | 1005 ft | 25 kts | 91° |
| 2026-05-07 01:19 | 33.63662 | -84.42719 | 1000 ft | 28 kts | 93° |
| 2026-05-07 01:20 | 33.63655 | -84.42473 | 995 ft | 31 kts | 90° |
| 2026-05-07 01:20 | 33.63652 | -84.42191 | 985 ft | 35 kts | 89° |
| 2026-05-07 01:20 | 33.63655 | -84.41874 | 970 ft | 40 kts | 90° |
| 2026-05-07 01:20 | 33.63655 | -84.41543 | 962 ft | 36 kts | 90° |
| 2026-05-07 01:21 | 33.63654 | -84.41281 | 961 ft | 30 kts | 88° |
| 2026-05-07 01:21 | 33.63657 | -84.41035 | 959 ft | 30 kts | 90° |
| 2026-05-07 01:21 | 33.63623 | -84.40907 | 955 ft | 10 kts | 179° |
| 2026-05-07 01:21 | 33.63582 | -84.40908 | 955 ft | 0 kts | 180° |
| 2026-05-07 01:22 | 33.63555 | -84.40908 | 955 ft | 10 kts | 180° |
| 2026-05-07 01:22 | 33.63473 | -84.40968 | 957 ft | 20 kts | 262° |
| 2026-05-07 01:22 | 33.63468 | -84.41354 | 962 ft | 81 kts | 269° |
| 2026-05-07 01:22 | 33.63471 | -84.42299 | 990 ft | 143 kts | 270° |
| 2026-05-07 01:23 | 33.63474 | -84.43623 | 1384 ft | 164 kts | 269° |
| 2026-05-07 01:23 | 33.63475 | -84.44979 | 2095 ft | 170 kts | 269° |
| 2026-05-07 01:23 | 33.63486 | -84.46403 | 2792 ft | 174 kts | 265° |
| 2026-05-07 01:23 | 33.63353 | -84.47835 | 3392 ft | 177 kts | 250° |
| 2026-05-07 01:24 | 33.62770 | -84.49195 | 3888 ft | 190 kts | 236° |
| 2026-05-07 01:24 | 33.62035 | -84.50532 | 4463 ft | 201 kts | 240° |
| 2026-05-07 01:24 | 33.61362 | -84.52101 | 4920 ft | 219 kts | 246° |
| 2026-05-07 01:24 | 33.60733 | -84.53787 | 5419 ft | 234 kts | 245° |
| 2026-05-07 01:25 | 33.60008 | -84.55599 | 5927 ft | 249 kts | 242° |
| 2026-05-07 01:25 | 33.58983 | -84.57252 | 6721 ft | 254 kts | 225° |
| 2026-05-07 01:25 | 33.57443 | -84.58256 | 7590 ft | 261 kts | 201° |
| 2026-05-07 01:25 | 33.55605 | -84.58510 | 8332 ft | 274 kts | 187° |
| 2026-05-07 01:26 | 33.53704 | -84.58488 | 9208 ft | 275 kts | 186° |
| 2026-05-07 01:26 | 33.51777 | -84.58411 | 10059 ft | 281 kts | 183° |
| 2026-05-07 01:26 | 33.49843 | -84.57890 | 10782 ft | 299 kts | 165° |
| 2026-05-07 01:26 | 33.48042 | -84.56462 | 11655 ft | 319 kts | 142° |
| 2026-05-07 01:27 | 33.46648 | -84.54342 | 12328 ft | 341 kts | 127° |
| 2026-05-07 01:27 | 33.45693 | -84.51650 | 12847 ft | 367 kts | 108° |
| 2026-05-07 01:27 | 33.45380 | -84.48556 | 13372 ft | 387 kts | 95° |
| 2026-05-07 01:27 | 33.45358 | -84.45280 | 13874 ft | 403 kts | 91° |
| 2026-05-07 01:28 | 33.45430 | -84.41894 | 14444 ft | 415 kts | 90° |
| 2026-05-07 01:28 | 33.45506 | -84.38415 | 15206 ft | 421 kts | 91° |
| 2026-05-07 01:28 | 33.45553 | -84.34907 | 16079 ft | 422 kts | 91° |
| 2026-05-07 01:28 | 33.45651 | -84.31433 | 16776 ft | 428 kts | 88° |
| 2026-05-07 01:29 | 33.45883 | -84.27865 | 17498 ft | 433 kts | 85° |
| 2026-05-07 01:29 | 33.46189 | -84.24276 | 18164 ft | 439 kts | 84° |
| 2026-05-07 01:29 | 33.46521 | -84.20625 | 18772 ft | 446 kts | 83° |
| 2026-05-07 01:29 | 33.46856 | -84.16906 | 19553 ft | 448 kts | 84° |
| 2026-05-07 01:30 | 33.47174 | -84.13214 | 20052 ft | 456 kts | 84° |
| 2026-05-07 01:30 | 33.47492 | -84.09401 | 20714 ft | 460 kts | 84° |
| 2026-05-07 01:30 | 33.47797 | -84.05633 | 21290 ft | 465 kts | 84° |
| 2026-05-07 01:30 | 33.48109 | -84.01725 | 21845 ft | 471 kts | 84° |
| 2026-05-07 01:31 | 33.48414 | -83.97870 | 22358 ft | 476 kts | 85° |
| 2026-05-07 01:31 | 33.48724 | -83.93898 | 22876 ft | 482 kts | 84° |
| 2026-05-07 01:31 | 33.49030 | -83.89931 | 23396 ft | 486 kts | 85° |
| 2026-05-07 01:31 | 33.49342 | -83.85864 | 24032 ft | 488 kts | 84° |
| 2026-05-07 01:32 | 33.49647 | -83.81874 | 24719 ft | 488 kts | 84° |
| 2026-05-07 01:32 | 33.49959 | -83.77801 | 25154 ft | 495 kts | 84° |
| 2026-05-07 01:32 | 33.50271 | -83.73689 | 25633 ft | 499 kts | 84° |
| 2026-05-07 01:32 | 33.50583 | -83.69526 | 26193 ft | 502 kts | 84° |
| 2026-05-07 01:33 | 33.50892 | -83.65379 | 26770 ft | 503 kts | 84° |
| 2026-05-07 01:33 | 33.51230 | -83.61214 | 27164 ft | 509 kts | 82° |
| 2026-05-07 01:33 | 33.51704 | -83.57000 | 27649 ft | 512 kts | 79° |
| 2026-05-07 01:33 | 33.52276 | -83.52811 | 28261 ft | 511 kts | 78° |
| 2026-05-07 01:34 | 33.52898 | -83.48612 | 28688 ft | 515 kts | 77° |
| 2026-05-07 01:34 | 33.53543 | -83.44354 | 28951 ft | 522 kts | 77° |
| 2026-05-07 01:34 | 33.54193 | -83.40057 | 28956 ft | 533 kts | 78° |
| 2026-05-07 01:35 | 33.55482 | -83.31289 | 28952 ft | 537 kts | 78° |
| 2026-05-07 01:35 | 33.56720 | -83.22494 | 28959 ft | 535 kts | 79° |
| 2026-05-07 01:36 | 33.57922 | -83.13725 | 28965 ft | 541 kts | 79° |
| 2026-05-07 01:36 | 33.59114 | -83.04909 | 28962 ft | 540 kts | 80° |
| 2026-05-07 01:37 | 33.60295 | -82.96131 | 28950 ft | 537 kts | 80° |
| 2026-05-07 01:37 | 33.61479 | -82.87270 | 28948 ft | 538 kts | 79° |
| 2026-05-07 01:38 | 33.62650 | -82.78449 | 28950 ft | 541 kts | 79° |
| 2026-05-07 01:38 | 33.63823 | -82.69565 | 28952 ft | 539 kts | 78° |
| 2026-05-07 01:39 | 33.64989 | -82.60704 | 28963 ft | 539 kts | 79° |
| 2026-05-07 01:39 | 33.66148 | -82.51851 | 28958 ft | 536 kts | 78° |
| 2026-05-07 01:40 | 33.67299 | -82.43018 | 28956 ft | 540 kts | 79° |
| 2026-05-07 01:40 | 33.68447 | -82.34145 | 28949 ft | 541 kts | 79° |
| 2026-05-07 01:41 | 33.69591 | -82.25254 | 28943 ft | 541 kts | 78° |
| 2026-05-07 01:41 | 33.70806 | -82.16460 | 28941 ft | 539 kts | 76° |
| 2026-05-07 01:42 | 33.72644 | -82.07755 | 28941 ft | 534 kts | 70° |
| 2026-05-07 01:42 | 33.74818 | -81.99264 | 28942 ft | 532 kts | 68° |
| 2026-05-07 01:43 | 33.77050 | -81.90826 | 28948 ft | 534 kts | 68° |
| 2026-05-07 01:43 | 33.79270 | -81.82288 | 28953 ft | 536 kts | 68° |
| 2026-05-07 01:44 | 33.81426 | -81.73811 | 28958 ft | 539 kts | 69° |
| 2026-05-07 01:44 | 33.83558 | -81.65283 | 28956 ft | 534 kts | 69° |
| 2026-05-07 01:45 | 33.85798 | -81.56859 | 28949 ft | 529 kts | 65° |
| 2026-05-07 01:45 | 33.88854 | -81.48839 | 28947 ft | 527 kts | 56° |
| 2026-05-07 01:46 | 33.92532 | -81.41251 | 28945 ft | 520 kts | 52° |
| 2026-05-07 01:46 | 33.96361 | -81.33876 | 28945 ft | 518 kts | 52° |
| 2026-05-07 01:47 | 34.00198 | -81.26457 | 28944 ft | 524 kts | 53° |
| 2026-05-07 01:47 | 34.04006 | -81.18958 | 28945 ft | 520 kts | 53° |
| 2026-05-07 01:48 | 34.07770 | -81.11440 | 28945 ft | 524 kts | 53° |
| 2026-05-07 01:48 | 34.11500 | -81.03921 | 28939 ft | 525 kts | 53° |
| 2026-05-07 01:49 | 34.15212 | -80.96415 | 28946 ft | 523 kts | 54° |
| 2026-05-07 01:49 | 34.18953 | -80.88837 | 28944 ft | 522 kts | 53° |
| 2026-05-07 01:50 | 34.22686 | -80.81257 | 28943 ft | 524 kts | 54° |
| 2026-05-07 01:50 | 34.26384 | -80.73739 | 28939 ft | 526 kts | 54° |
| 2026-05-07 01:51 | 34.30080 | -80.66204 | 28948 ft | 520 kts | 54° |
| 2026-05-07 01:51 | 34.33749 | -80.58703 | 28848 ft | 513 kts | 54° |
| 2026-05-07 01:51 | 34.35543 | -80.55026 | 28473 ft | 503 kts | 54° |
| 2026-05-07 01:52 | 34.37365 | -80.51326 | 27209 ft | 523 kts | 54° |
| 2026-05-07 01:52 | 34.39275 | -80.47552 | 25764 ft | 545 kts | 54° |
| 2026-05-07 01:52 | 34.41315 | -80.43635 | 24859 ft | 543 kts | 53° |
| 2026-05-07 01:52 | 34.43235 | -80.39889 | 24813 ft | 522 kts | 54° |
| 2026-05-07 01:53 | 34.45077 | -80.36107 | 24572 ft | 519 kts | 55° |
| 2026-05-07 01:53 | 34.46861 | -80.32340 | 24319 ft | 515 kts | 57° |
| 2026-05-07 01:53 | 34.48294 | -80.29275 | 24118 ft | 505 kts | 56° |
| 2026-05-07 01:53 | 34.49570 | -80.26546 | 23972 ft | 497 kts | 56° |
| 2026-05-07 01:54 | 34.51242 | -80.22978 | 23956 ft | 484 kts | 56° |
| 2026-05-07 01:54 | 34.52887 | -80.19491 | 23938 ft | 471 kts | 56° |
| 2026-05-07 01:54 | 34.54498 | -80.16093 | 23937 ft | 457 kts | 55° |
| 2026-05-07 01:54 | 34.56062 | -80.12813 | 23950 ft | 447 kts | 55° |
| 2026-05-07 01:55 | 34.57623 | -80.09551 | 23943 ft | 444 kts | 55° |
| 2026-05-07 01:55 | 34.59180 | -80.06316 | 23948 ft | 452 kts | 55° |
| 2026-05-07 01:55 | 34.60784 | -80.02993 | 23956 ft | 463 kts | 55° |
| 2026-05-07 01:55 | 34.62444 | -79.99564 | 23953 ft | 476 kts | 55° |
| 2026-05-07 01:56 | 34.64133 | -79.96071 | 23946 ft | 477 kts | 55° |
| 2026-05-07 01:56 | 34.65757 | -79.92699 | 23942 ft | 462 kts | 54° |
| 2026-05-07 01:56 | 34.67468 | -79.89431 | 23946 ft | 454 kts | 50° |
| 2026-05-07 01:56 | 34.69396 | -79.86469 | 23944 ft | 439 kts | 40° |
| 2026-05-07 01:57 | 34.71597 | -79.84010 | 23949 ft | 425 kts | 32° |
| 2026-05-07 01:57 | 34.73916 | -79.81834 | 23946 ft | 415 kts | 29° |
| 2026-05-07 01:57 | 34.76237 | -79.79826 | 23953 ft | 418 kts | 28° |
| 2026-05-07 01:57 | 34.78688 | -79.77769 | 23953 ft | 430 kts | 27° |
| 2026-05-07 01:58 | 34.81171 | -79.75683 | 23956 ft | 441 kts | 28° |
| 2026-05-07 01:58 | 34.83650 | -79.73569 | 23955 ft | 436 kts | 28° |
| 2026-05-07 01:58 | 34.86091 | -79.71449 | 23780 ft | 425 kts | 29° |
| 2026-05-07 01:58 | 34.88464 | -79.69361 | 23326 ft | 414 kts | 29° |
| 2026-05-07 01:59 | 34.90797 | -79.67304 | 22399 ft | 416 kts | 29° |
| 2026-05-07 01:59 | 34.93097 | -79.65277 | 21654 ft | 413 kts | 29° |
| 2026-05-07 01:59 | 34.95408 | -79.63238 | 21145 ft | 408 kts | 29° |
| 2026-05-07 01:59 | 34.97672 | -79.61230 | 20970 ft | 397 kts | 29° |
| 2026-05-07 02:00 | 34.99857 | -79.59283 | 20947 ft | 382 kts | 28° |
| 2026-05-07 02:00 | 35.01976 | -79.57390 | 20937 ft | 367 kts | 28° |
| 2026-05-07 02:00 | 35.03983 | -79.55601 | 20940 ft | 359 kts | 28° |
| 2026-05-07 02:00 | 35.06007 | -79.53810 | 20947 ft | 359 kts | 28° |
| 2026-05-07 02:01 | 35.08025 | -79.52027 | 20940 ft | 358 kts | 27° |
| 2026-05-07 02:01 | 35.10150 | -79.50342 | 20944 ft | 367 kts | 21° |
| 2026-05-07 02:01 | 35.12475 | -79.49078 | 20947 ft | 370 kts | 9° |
| 2026-05-07 02:01 | 35.14992 | -79.48412 | 20948 ft | 375 kts | 1° |
| 2026-05-07 02:02 | 35.17615 | -79.48015 | 20951 ft | 385 kts | 359° |
| 2026-05-07 02:02 | 35.20347 | -79.47691 | 20955 ft | 397 kts | 358° |
| 2026-05-07 02:02 | 35.23109 | -79.47377 | 20956 ft | 408 kts | 358° |
| 2026-05-07 02:02 | 35.25997 | -79.47038 | 20710 ft | 418 kts | 358° |
| 2026-05-07 02:03 | 35.28861 | -79.46682 | 20071 ft | 415 kts | 358° |
| 2026-05-07 02:03 | 35.31720 | -79.46260 | 19419 ft | 412 kts | 1° |
| 2026-05-07 02:03 | 35.34517 | -79.45467 | 18793 ft | 413 kts | 12° |
| 2026-05-07 02:03 | 35.37085 | -79.43958 | 18221 ft | 416 kts | 26° |
| 2026-05-07 02:04 | 35.39426 | -79.41878 | 17648 ft | 410 kts | 32° |
| 2026-05-07 02:04 | 35.41581 | -79.39717 | 17188 ft | 399 kts | 34° |
| 2026-05-07 02:04 | 35.43690 | -79.37518 | 16894 ft | 392 kts | 33° |
| 2026-05-07 02:04 | 35.45734 | -79.35381 | 16453 ft | 390 kts | 34° |
| 2026-05-07 02:05 | 35.47800 | -79.33240 | 15931 ft | 390 kts | 34° |
| 2026-05-07 02:05 | 35.49889 | -79.31097 | 15395 ft | 390 kts | 34° |
| 2026-05-07 02:05 | 35.51965 | -79.28984 | 14861 ft | 391 kts | 34° |
| 2026-05-07 02:05 | 35.54057 | -79.26860 | 14309 ft | 391 kts | 34° |
| 2026-05-07 02:06 | 35.56152 | -79.24738 | 13758 ft | 392 kts | 34° |
| 2026-05-07 02:06 | 35.58261 | -79.22600 | 13206 ft | 392 kts | 34° |
| 2026-05-07 02:06 | 35.60358 | -79.20476 | 12661 ft | 392 kts | 35° |
| 2026-05-07 02:06 | 35.62444 | -79.18332 | 12108 ft | 393 kts | 38° |
| 2026-05-07 02:07 | 35.64361 | -79.15904 | 11553 ft | 396 kts | 46° |
| 2026-05-07 02:07 | 35.67677 | -79.10544 | 10486 ft | 394 kts | 52° |
| 2026-05-07 02:07 | 35.69228 | -79.07837 | 10254 ft | 381 kts | 53° |
| 2026-05-07 02:08 | 35.70714 | -79.05233 | 10149 ft | 365 kts | 52° |
| 2026-05-07 02:08 | 35.72156 | -79.02730 | 9912 ft | 355 kts | 52° |
| 2026-05-07 02:08 | 35.73587 | -79.00281 | 9481 ft | 352 kts | 52° |
| 2026-05-07 02:08 | 35.75015 | -78.97871 | 9057 ft | 342 kts | 51° |
| 2026-05-07 02:09 | 35.76395 | -78.95545 | 8685 ft | 330 kts | 51° |
| 2026-05-07 02:09 | 35.77732 | -78.93333 | 8328 ft | 319 kts | 48° |
| 2026-05-07 02:09 | 35.79206 | -78.91343 | 8011 ft | 305 kts | 36° |
| 2026-05-07 02:09 | 35.80953 | -78.90132 | 7972 ft | 275 kts | 12° |
| 2026-05-07 02:10 | 35.82746 | -78.89578 | 7850 ft | 266 kts | 5° |
| 2026-05-07 02:10 | 35.84609 | -78.89135 | 7545 ft | 278 kts | 5° |
| 2026-05-07 02:10 | 35.86529 | -78.88631 | 7295 ft | 287 kts | 7° |
| 2026-05-07 02:10 | 35.88469 | -78.88052 | 7199 ft | 285 kts | 8° |
| 2026-05-07 02:11 | 35.90409 | -78.87440 | 6965 ft | 286 kts | 8° |
| 2026-05-07 02:11 | 35.92323 | -78.86829 | 6626 ft | 285 kts | 8° |
| 2026-05-07 02:11 | 35.94215 | -78.86077 | 6316 ft | 287 kts | 18° |
| 2026-05-07 02:11 | 35.95908 | -78.84721 | 6044 ft | 291 kts | 38° |
| 2026-05-07 02:12 | 35.97288 | -78.82986 | 5982 ft | 280 kts | 44° |
| 2026-05-07 02:12 | 35.98566 | -78.81255 | 5961 ft | 267 kts | 44° |
| 2026-05-07 02:12 | 35.99808 | -78.79627 | 5824 ft | 257 kts | 42° |
| 2026-05-07 02:12 | 36.01061 | -78.78047 | 5540 ft | 258 kts | 41° |
| 2026-05-07 02:13 | 36.02330 | -78.76484 | 5289 ft | 256 kts | 41° |
| 2026-05-07 02:13 | 36.03591 | -78.74940 | 5065 ft | 254 kts | 41° |
| 2026-05-07 02:13 | 36.04829 | -78.73429 | 4995 ft | 247 kts | 41° |
| 2026-05-07 02:13 | 36.06041 | -78.71945 | 4996 ft | 246 kts | 41° |
| 2026-05-07 02:14 | 36.07262 | -78.70457 | 4994 ft | 249 kts | 41° |
| 2026-05-07 02:14 | 36.08525 | -78.68919 | 4989 ft | 255 kts | 41° |
| 2026-05-07 02:14 | 36.09804 | -78.67360 | 4988 ft | 259 kts | 41° |
| 2026-05-07 02:14 | 36.11086 | -78.65795 | 4986 ft | 261 kts | 41° |
| 2026-05-07 02:15 | 36.12362 | -78.64233 | 4987 ft | 260 kts | 41° |
| 2026-05-07 02:15 | 36.13650 | -78.62650 | 4988 ft | 257 kts | 41° |
| 2026-05-07 02:15 | 36.14910 | -78.61111 | 4986 ft | 255 kts | 41° |
| 2026-05-07 02:15 | 36.16179 | -78.59564 | 4979 ft | 254 kts | 40° |
| 2026-05-07 02:16 | 36.17443 | -78.58026 | 4980 ft | 255 kts | 41° |
| 2026-05-07 02:16 | 36.18692 | -78.56502 | 4983 ft | 256 kts | 40° |
| 2026-05-07 02:16 | 36.19961 | -78.54948 | 4988 ft | 256 kts | 41° |
| 2026-05-07 02:16 | 36.21236 | -78.53386 | 4982 ft | 256 kts | 41° |
| 2026-05-07 02:17 | 36.22483 | -78.51868 | 4979 ft | 250 kts | 40° |
| 2026-05-07 02:17 | 36.23746 | -78.50334 | 4980 ft | 256 kts | 41° |
| 2026-05-07 02:17 | 36.25025 | -78.48774 | 4981 ft | 260 kts | 41° |
| 2026-05-07 02:17 | 36.26315 | -78.47204 | 4977 ft | 259 kts | 41° |
| 2026-05-07 02:18 | 36.27598 | -78.45680 | 4975 ft | 254 kts | 35° |
| 2026-05-07 02:18 | 36.29142 | -78.44846 | 4974 ft | 232 kts | 357° |
| 2026-05-07 02:18 | 36.30570 | -78.45285 | 4978 ft | 201 kts | 317° |
| 2026-05-07 02:18 | 36.31589 | -78.46363 | 4981 ft | 186 kts | 308° |
| 2026-05-07 02:19 | 36.32521 | -78.47437 | 4981 ft | 183 kts | 309° |
| 2026-05-07 02:19 | 36.33473 | -78.48521 | 4978 ft | 183 kts | 309° |
| 2026-05-07 02:19 | 36.34406 | -78.49576 | 4977 ft | 183 kts | 309° |
| 2026-05-07 02:19 | 36.35171 | -78.50778 | 4972 ft | 170 kts | 281° |
| 2026-05-07 02:20 | 36.35012 | -78.52132 | 4979 ft | 166 kts | 234° |
| 2026-05-07 02:20 | 36.33970 | -78.52814 | 4984 ft | 184 kts | 195° |
| 2026-05-07 02:20 | 36.32669 | -78.52891 | 4978 ft | 187 kts | 189° |
| 2026-05-07 02:20 | 36.31365 | -78.52950 | 4977 ft | 187 kts | 190° |
| 2026-05-07 02:21 | 36.30077 | -78.53030 | 4976 ft | 186 kts | 190° |
| 2026-05-07 02:21 | 36.28778 | -78.53105 | 4976 ft | 186 kts | 190° |
| 2026-05-07 02:21 | 36.27479 | -78.53184 | 4975 ft | 186 kts | 190° |
| 2026-05-07 02:21 | 36.26172 | -78.53256 | 4970 ft | 186 kts | 190° |
| 2026-05-07 02:22 | 36.24874 | -78.53329 | 4974 ft | 186 kts | 190° |
| 2026-05-07 02:22 | 36.23589 | -78.53398 | 4974 ft | 185 kts | 189° |
| 2026-05-07 02:22 | 36.22304 | -78.53474 | 4972 ft | 185 kts | 190° |
| 2026-05-07 02:22 | 36.21014 | -78.53542 | 4971 ft | 185 kts | 190° |
| 2026-05-07 02:23 | 36.20036 | -78.53589 | 4972 ft | 184 kts | 190° |
| 2026-05-07 02:23 | 36.18736 | -78.53648 | 4969 ft | 184 kts | 191° |
| 2026-05-07 02:23 | 36.17456 | -78.53706 | 4972 ft | 183 kts | 189° |
| 2026-05-07 02:23 | 36.16194 | -78.53763 | 4973 ft | 183 kts | 190° |
| 2026-05-07 02:24 | 36.14902 | -78.53822 | 4977 ft | 183 kts | 190° |
| 2026-05-07 02:24 | 36.13634 | -78.53884 | 4975 ft | 184 kts | 190° |
| 2026-05-07 02:24 | 36.12351 | -78.53945 | 4973 ft | 183 kts | 191° |
| 2026-05-07 02:24 | 36.11081 | -78.54001 | 4973 ft | 183 kts | 190° |
| 2026-05-07 02:25 | 36.09813 | -78.54122 | 4977 ft | 179 kts | 199° |
| 2026-05-07 02:25 | 36.08675 | -78.54680 | 4978 ft | 172 kts | 215° |
| 2026-05-07 02:25 | 36.07704 | -78.55489 | 4976 ft | 170 kts | 223° |
| 2026-05-07 02:25 | 36.06795 | -78.56435 | 4973 ft | 168 kts | 226° |
| 2026-05-07 02:26 | 36.05943 | -78.57423 | 4956 ft | 169 kts | 228° |
| 2026-05-07 02:26 | 36.05086 | -78.58463 | 4790 ft | 178 kts | 228° |
| 2026-05-07 02:26 | 36.04176 | -78.59583 | 4496 ft | 188 kts | 227° |
| 2026-05-07 02:26 | 36.03261 | -78.60705 | 4229 ft | 184 kts | 228° |
| 2026-05-07 02:27 | 36.02363 | -78.61811 | 3975 ft | 180 kts | 228° |
| 2026-05-07 02:27 | 36.01498 | -78.62883 | 3722 ft | 176 kts | 229° |
| 2026-05-07 02:27 | 36.00639 | -78.63945 | 3481 ft | 172 kts | 228° |
| 2026-05-07 02:27 | 35.99799 | -78.64982 | 3247 ft | 169 kts | 227° |
| 2026-05-07 02:28 | 35.98971 | -78.66000 | 3019 ft | 166 kts | 227° |
| 2026-05-07 02:28 | 35.98160 | -78.66997 | 2792 ft | 163 kts | 228° |
| 2026-05-07 02:28 | 35.97376 | -78.67972 | 2577 ft | 160 kts | 228° |
| 2026-05-07 02:28 | 35.96591 | -78.68939 | 2374 ft | 161 kts | 227° |
| 2026-05-07 02:29 | 35.95789 | -78.69926 | 2147 ft | 160 kts | 226° |
| 2026-05-07 02:29 | 35.95012 | -78.70880 | 1937 ft | 153 kts | 227° |
| 2026-05-07 02:29 | 35.94291 | -78.71783 | 1737 ft | 142 kts | 227° |
| 2026-05-07 02:29 | 35.93610 | -78.72616 | 1583 ft | 132 kts | 226° |
| 2026-05-07 02:30 | 35.92967 | -78.73410 | 1383 ft | 131 kts | 226° |
| 2026-05-07 02:30 | 35.92324 | -78.74198 | 1210 ft | 130 kts | 225° |
| 2026-05-07 02:30 | 35.91672 | -78.74989 | 1049 ft | 134 kts | 225° |
| 2026-05-07 02:30 | 35.91002 | -78.75822 | 877 ft | 137 kts | 225° |
| 2026-05-07 02:31 | 35.90323 | -78.76653 | 688 ft | 139 kts | 224° |
| 2026-05-07 02:31 | 35.89630 | -78.77504 | 477 ft | 142 kts | 224° |
| 2026-05-07 02:31 | 35.88960 | -78.78328 | 391 ft | 115 kts | 225° |
| 2026-05-07 02:31 | 35.88570 | -78.78806 | 395 ft | 48 kts | 225° |
| 2026-05-07 02:32 | 35.88380 | -78.79040 | 389 ft | 23 kts | 221° |
| 2026-05-07 02:32 | 35.88281 | -78.79067 | 389 ft | 12 kts | 155° |
| 2026-05-07 02:32 | 35.88256 | -78.79037 | 392 ft | 0 kts | 129° |
| 2026-05-07 02:32 | 35.88219 | -78.79041 | 392 ft | 10 kts | 207° |
| 2026-05-07 02:33 | 35.88139 | -78.79047 | 394 ft | 10 kts | 199° |
| 2026-05-07 02:33 | 35.88071 | -78.79130 | 392 ft | 16 kts | 225° |
| 2026-05-07 02:33 | 35.87984 | -78.79235 | 390 ft | 18 kts | 229° |
| 2026-05-07 02:33 | 35.87913 | -78.79314 | 388 ft | 6 kts | 175° |
| 2026-05-07 02:34 | 35.87882 | -78.79286 | 390 ft | 4 kts | 134° |
| 2026-05-07 02:34 | 35.87870 | -78.79272 | 391 ft | 0 kts | 135° |